Oak Creek, Nebraska
Current Conditions -  °F | °C
As of 4:53 AM on Sunday 21 Dec 2014 (Local Time) from KBBW Reporting Station
Broken Clouds Broken Clouds  
Wind Chill: 30°   Ceiling: 11000
Heat Index: 30°   Visibility: 10mi
Dew Point: 26°   Wind: 0mph
Humidity: 85%   Direction: NA
Pressure: 29.79"   Gusts: NA
Location:  41.3026°N, 99.0141°W
Report Text: KBBW 211053Z AUTO 00000KT 10SM BKN110 M01/M03 A2979 RMK AO2 SLP107 T10111033
Loading
Personal Weather Stations






























Interactive Weather Map New forecast layout! Learn more

10-Day Weather Forecast

Advertisements
Track Severe Weather on mobile